Time;durP1;ratioP1;P1;durP2;ratioP2;P2;SDS_P1;SDS_P2;PMS_P1;PMS_P2;Temp;Humidity;BMP_temperature;BMP_pressure;BME280_temperature;BME280_humidity;BME280_pressure;Samples;Min_cycle;Max_cycle;Signal;HPM_P1;HPM_P2
2023/12/30 00:04:12;;;;;;;1.65;0.80;;;;;;;8.26;65.85;99481.63;10502718;28;20946;-63
2023/12/30 00:09:14;;;;;;;0.88;0.65;;;;;;;8.37;65.31;99484.44;10519783;28;20129;-63
2023/12/30 00:14:16;;;;;;;0.77;0.57;;;;;;;8.27;65.43;99488.50;10520713;28;20500;-62
2023/12/30 00:19:18;;;;;;;2.65;0.82;;;;;;;8.14;65.82;99484.94;10520014;28;20052;-62
2023/12/30 00:24:21;;;;;;;0.65;0.60;;;;;;;8.25;65.57;99477.34;10520030;28;20040;-62
2023/12/30 00:29:23;;;;;;;2.53;0.88;;;;;;;8.21;65.35;99484.50;10518269;28;20132;-63
2023/12/30 00:34:26;;;;;;;1.85;0.70;;;;;;;8.22;65.03;99487.94;10501106;28;20110;-63
2023/12/30 00:39:28;;;;;;;3.05;0.95;;;;;;;8.09;64.99;99492.97;10518331;28;20048;-63
2023/12/30 00:44:30;;;;;;;0.98;0.60;;;;;;;8.19;64.54;99488.97;10518139;28;20057;-63
2023/12/30 00:49:32;;;;;;;3.72;1.13;;;;;;;8.16;64.41;99491.72;10518534;28;20040;-62
2023/12/30 00:54:34;;;;;;;3.72;1.20;;;;;;;8.21;64.06;99499.28;10517793;28;20133;-62
2023/12/30 00:59:48;;;;;;;2.30;1.10;;;;;;;8.19;63.56;99511.56;10499867;28;20047;-63
2023/12/30 01:04:50;;;;;;;0.80;0.75;;;;;;;8.26;63.74;99502.47;10517342;28;20048;-62
2023/12/30 01:09:52;;;;;;;2.72;1.25;;;;;;;8.18;63.13;99517.72;10517353;28;20048;-63
2023/12/30 01:14:54;;;;;;;2.45;0.85;;;;;;;8.41;63.19;99507.63;10533186;28;20530;-63
2023/12/30 01:19:56;;;;;;;3.75;0.75;;;;;;;8.23;62.42;99519.13;10532817;27;20067;-62
2023/12/30 01:24:58;;;;;;;5.15;1.00;;;;;;;8.32;62.80;99517.75;10517306;28;20059;-63
2023/12/30 01:30:00;;;;;;;3.60;1.10;;;;;;;8.48;62.61;99526.38;10516805;28;20446;-63
2023/12/30 01:35:03;;;;;;;1.30;0.88;;;;;;;8.38;61.83;99527.84;10497375;28;20048;-62
2023/12/30 01:40:06;;;;;;;1.63;0.93;;;;;;;8.52;61.70;99531.34;10516334;28;20496;-62
2023/12/30 01:45:08;;;;;;;3.97;1.13;;;;;;;8.59;62.01;99537.84;10532132;28;20050;-62
2023/12/30 01:50:10;;;;;;;1.30;0.98;;;;;;;8.59;61.75;99548.28;10483087;28;20063;-62
2023/12/30 01:55:15;;;;;;;1.80;0.68;;;;;;;8.54;61.33;99565.13;10498520;28;20139;-62
2023/12/30 02:00:22;;;;;;;1.13;0.90;;;;;;;8.63;61.53;99564.56;10497873;28;20093;-63
2023/12/30 02:05:24;;;;;;;2.85;1.52;;;;;;;8.64;61.42;99572.31;10497559;28;20076;-63
2023/12/30 02:10:26;;;;;;;4.15;1.30;;;;;;;8.65;61.37;99575.75;10515681;28;20043;-63
2023/12/30 02:15:29;;;;;;;2.47;1.05;;;;;;;8.73;60.94;99576.16;10492782;28;20052;-63
2023/12/30 02:20:32;;;;;;;4.75;1.25;;;;;;;8.60;61.19;99588.22;10497473;28;20131;-63
2023/12/30 02:25:34;;;;;;;2.22;0.93;;;;;;;8.61;61.22;99580.31;10497189;28;20040;-63
2023/12/30 02:30:36;;;;;;;3.08;1.02;;;;;;;8.54;61.31;99585.97;10514426;28;20044;-63
2023/12/30 02:35:42;;;;;;;2.75;1.10;;;;;;;8.49;61.33;99590.59;10515209;28;20144;-63
2023/12/30 02:40:44;;;;;;;2.00;1.10;;;;;;;8.36;61.60;99585.25;10514364;28;20131;-62
2023/12/30 02:45:47;;;;;;;5.47;1.25;;;;;;;8.25;61.66;99591.97;10497572;28;20055;-62
2023/12/30 02:50:49;;;;;;;2.20;1.15;;;;;;;8.21;61.66;99595.66;10514030;28;20102;-63
2023/12/30 02:55:51;;;;;;;4.72;1.48;;;;;;;8.05;61.97;99593.03;10499255;28;20105;-64
2023/12/30 03:00:53;;;;;;;5.30;1.48;;;;;;;8.08;61.86;99587.66;10502655;28;20712;-63
2023/12/30 03:05:59;;;;;;;5.43;1.70;;;;;;;7.87;62.38;99602.69;10538936;27;20302;-63
2023/12/30 03:11:03;;;;;;;1.80;1.10;;;;;;;7.98;62.02;99594.28;10500988;28;20047;-63
2023/12/30 03:16:06;;;;;;;3.58;1.42;;;;;;;7.90;62.10;99610.34;10503928;28;20085;-62
2023/12/30 03:21:10;;;;;;;1.35;0.90;;;;;;;7.88;62.13;99612.19;10503960;28;20089;-63
2023/12/30 03:26:12;;;;;;;3.40;1.20;;;;;;;7.92;62.21;99603.28;10503283;28;20052;-63
2023/12/30 03:31:26;;;;;;;8.60;1.80;;;;;;;8.06;61.72;99610.31;10521498;28;20040;-62
2023/12/30 03:36:28;;;;;;;2.20;0.90;;;;;;;8.05;62.05;99621.69;10521132;28;20492;-63
2023/12/30 03:41:30;;;;;;;3.03;1.10;;;;;;;8.01;61.96;99608.00;10503339;28;20139;-63
2023/12/30 03:46:32;;;;;;;5.80;2.35;;;;;;;8.05;61.83;99616.47;10521174;28;20493;-62
2023/12/30 03:51:34;;;;;;;2.40;1.00;;;;;;;8.04;61.74;99612.19;10537523;27;20048;-62
2023/12/30 03:56:39;;;;;;;1.90;0.63;;;;;;;8.00;61.72;99601.09;10521026;28;20055;-62
2023/12/30 04:01:42;;;;;;;1.73;0.63;;;;;;;7.99;61.61;99604.63;10519121;28;20745;-63
2023/12/30 04:06:45;;;;;;;4.80;1.10;;;;;;;7.89;61.83;99603.47;10519649;28;20039;-62
2023/12/30 04:11:46;;;;;;;4.47;1.10;;;;;;;7.93;61.83;99604.13;10520558;28;20134;-62
2023/12/30 04:16:49;;;;;;;1.45;0.98;;;;;;;8.02;61.76;99603.59;10519861;28;20097;-62
2023/12/30 04:21:51;;;;;;;4.57;1.10;;;;;;;8.04;61.68;99602.59;10502449;28;20067;-62
2023/12/30 04:26:53;;;;;;;3.30;1.50;;;;;;;8.00;61.78;99614.13;10501467;28;20040;-62
2023/12/30 04:31:55;;;;;;;4.55;1.45;;;;;;;7.96;62.19;99610.00;10519221;28;20042;-62
2023/12/30 04:36:57;;;;;;;5.70;1.60;;;;;;;8.07;62.07;99614.63;10517130;28;20048;-63
2023/12/30 04:41:59;;;;;;;3.05;1.30;;;;;;;8.13;61.95;99626.50;10500752;28;20044;-62
2023/12/30 04:47:01;;;;;;;2.78;1.27;;;;;;;8.16;62.00;99615.94;10500967;28;20055;-62
2023/12/30 04:52:03;;;;;;;1.83;1.17;;;;;;;8.23;61.88;99617.25;10518079;28;20051;-62
2023/12/30 04:57:05;;;;;;;4.75;1.42;;;;;;;8.37;61.69;99627.75;10500679;28;20067;-62
2023/12/30 05:02:07;;;;;;;4.25;1.40;;;;;;;8.25;61.73;99620.63;10517406;28;20048;-62
2023/12/30 05:07:09;;;;;;;2.15;1.20;;;;;;;8.23;61.73;99620.72;10499347;28;20906;-64
2023/12/30 05:12:11;;;;;;;4.13;1.40;;;;;;;8.12;62.04;99628.25;10517505;28;20039;-62
2023/12/30 05:17:13;;;;;;;3.72;1.35;;;;;;;8.24;61.81;99634.59;10516183;28;20139;-63
2023/12/30 05:22:15;;;;;;;2.03;1.05;;;;;;;8.19;61.61;99647.00;10517288;28;20416;-63
2023/12/30 05:27:17;;;;;;;3.78;1.20;;;;;;;8.09;61.80;99658.81;10516959;28;20047;-63
2023/12/30 05:32:19;;;;;;;1.75;0.88;;;;;;;8.10;61.74;99637.06;10516083;28;20040;-63
2023/12/30 05:37:21;;;;;;;3.03;0.95;;;;;;;8.04;61.51;99648.63;10532288;27;20105;-63
2023/12/30 05:42:23;;;;;;;2.08;1.20;;;;;;;7.89;61.39;99665.94;10516637;28;20093;-62
2023/12/30 05:47:25;;;;;;;6.68;1.15;;;;;;;7.80;61.54;99658.59;10514824;28;20132;-63
2023/12/30 05:52:27;;;;;;;1.05;0.50;;;;;;;7.77;61.44;99670.94;10515107;28;20121;-63
2023/12/30 05:57:30;;;;;;;3.90;1.17;;;;;;;7.66;61.57;99679.31;10516333;28;20067;-62
2023/12/30 06:02:33;;;;;;;2.33;1.00;;;;;;;7.63;61.71;99682.06;10515305;28;20118;-63
2023/12/30 06:07:38;;;;;;;1.08;0.60;;;;;;;7.67;61.60;99685.38;10515013;28;20416;-62
2023/12/30 06:12:40;;;;;;;1.33;1.10;;;;;;;7.62;61.77;99685.59;10515937;28;20048;-63
2023/12/30 06:17:42;;;;;;;0.68;0.68;;;;;;;7.64;61.61;99699.38;10514827;28;20422;-62
2023/12/30 06:22:44;;;;;;;1.55;0.90;;;;;;;7.65;61.75;99693.22;10515814;28;20039;-63
2023/12/30 06:27:46;;;;;;;3.53;0.68;;;;;;;7.81;61.58;99701.94;10515107;28;20047;-63
2023/12/30 06:32:48;;;;;;;3.25;1.58;;;;;;;7.72;61.21;99710.22;10496412;28;20089;-63
2023/12/30 06:37:51;;;;;;;3.17;0.55;;;;;;;7.80;61.23;99702.88;10496063;28;20587;-63
2023/12/30 06:42:53;;;;;;;1.85;0.80;;;;;;;7.87;61.35;99712.06;10513591;28;20404;-63
2023/12/30 06:47:55;;;;;;;3.75;0.93;;;;;;;7.77;61.14;99717.81;10514684;28;20412;-63
2023/12/30 06:52:58;;;;;;;5.68;1.45;;;;;;;7.89;60.95;99712.81;10513617;28;20504;-63
2023/12/30 06:58:01;;;;;;;2.67;0.80;;;;;;;7.87;61.09;99713.81;10514724;28;20623;-63
2023/12/30 07:03:03;;;;;;;1.75;0.60;;;;;;;7.91;61.27;99716.19;10514023;28;20616;-62
2023/12/30 07:08:06;;;;;;;1.95;1.30;;;;;;;7.92;61.19;99715.25;10514370;28;20126;-63
2023/12/30 07:13:09;;;;;;;4.38;1.83;;;;;;;8.00;61.15;99720.88;10512679;28;20063;-64
2023/12/30 07:18:11;;;;;;;0.90;0.73;;;;;;;8.09;60.90;99732.59;10514089;28;20046;-63
2023/12/30 07:23:14;;;;;;;4.65;1.10;;;;;;;8.21;60.85;99741.53;10513491;28;20044;-63
2023/12/30 07:28:16;;;;;;;4.85;1.65;;;;;;;8.27;60.99;99754.25;10495676;28;20052;-63
2023/12/30 07:33:18;;;;;;;3.25;1.10;;;;;;;8.32;61.14;99757.47;10513787;28;20052;-64
2023/12/30 07:38:20;;;;;;;1.67;0.88;;;;;;;8.37;60.94;99764.09;10512841;28;20682;-64
2023/12/30 07:43:24;;;;;;;3.10;1.25;;;;;;;8.43;60.62;99768.97;10509959;28;20043;-64
2023/12/30 07:48:29;;;;;;;1.42;0.98;;;;;;;8.45;60.70;99774.09;10515159;28;20046;-64
2023/12/30 07:53:31;;;;;;;2.00;0.98;;;;;;;8.66;60.43;99779.03;10515569;28;20153;-63
2023/12/30 07:58:34;;;;;;;0.70;0.70;;;;;;;8.66;60.38;99778.19;10496021;28;20040;-64
2023/12/30 08:03:36;;;;;;;10.38;2.22;;;;;;;8.69;60.38;99778.84;10526178;27;20052;-63
2023/12/30 08:08:38;;;;;;;9.02;2.50;;;;;;;8.74;60.41;99781.22;10514824;28;20075;-64
2023/12/30 08:13:40;;;;;;;2.83;1.23;;;;;;;8.73;60.32;99775.13;10496227;28;20632;-64
2023/12/30 08:18:42;;;;;;;1.98;1.05;;;;;;;8.69;60.55;99784.06;10513505;28;20135;-64
2023/12/30 08:23:45;;;;;;;3.25;1.10;;;;;;;8.68;60.61;99789.38;10513967;28;20090;-64
2023/12/30 08:28:47;;;;;;;2.00;1.00;;;;;;;8.60;60.86;99784.56;10511301;28;20048;-64
2023/12/30 08:33:51;;;;;;;3.85;1.05;;;;;;;8.60;60.79;99788.94;10511437;28;20072;-63
2023/12/30 08:38:53;;;;;;;2.28;1.25;;;;;;;8.70;60.81;99782.31;10511132;28;20476;-63
2023/12/30 08:43:58;;;;;;;2.42;0.75;;;;;;;8.72;60.72;99785.66;10493884;28;20071;-64
2023/12/30 08:49:00;;;;;;;8.68;3.38;;;;;;;8.88;60.58;99801.31;10489606;28;20056;-70
2023/12/30 08:54:02;;;;;;;7.05;1.35;;;;;;;8.92;60.59;99802.81;10509321;28;20139;-71
2023/12/30 08:59:04;;;;;;;4.93;1.50;;;;;;;9.03;60.66;99803.94;10493765;28;20044;-70
2023/12/30 09:04:06;;;;;;;3.22;1.30;;;;;;;9.01;60.62;99805.78;10511584;28;20040;-70
2023/12/30 09:09:08;;;;;;;3.95;1.42;;;;;;;9.03;60.77;99810.91;10511562;28;20036;-70
2023/12/30 09:14:11;;;;;;;2.50;1.08;;;;;;;9.15;60.47;99803.25;10511451;28;20071;-71
2023/12/30 09:19:13;;;;;;;5.25;1.10;;;;;;;9.36;60.10;99817.69;10509563;28;20305;-71
2023/12/30 09:24:18;;;;;;;1.73;1.02;;;;;;;9.45;59.73;99825.00;10492686;28;20048;-69
2023/12/30 09:29:20;;;;;;;3.78;1.45;;;;;;;9.44;59.30;99831.13;10491363;28;20048;-70
2023/12/30 09:34:22;;;;;;;2.78;1.35;;;;;;;9.39;59.50;99838.41;10510989;28;20858;-70
2023/12/30 09:39:39;;;;;;;1.45;0.95;;;;;;;9.51;59.42;99850.75;10508789;28;20060;-70
2023/12/30 09:44:42;;;;;;;3.95;1.30;;;;;;;9.40;59.35;99858.34;10508529;28;20416;-70
2023/12/30 09:49:44;;;;;;;2.67;1.00;;;;;;;9.33;59.27;99862.22;10507141;28;20060;-70
2023/12/30 09:54:46;;;;;;;7.63;1.60;;;;;;;9.53;59.17;99859.34;10504785;28;20423;-70
2023/12/30 09:59:51;;;;;;;6.03;1.40;;;;;;;9.68;58.82;99865.50;10510412;28;20044;-70
2023/12/30 10:04:55;;;;;;;2.80;1.38;;;;;;;9.68;57.81;99855.06;10512209;28;20052;-69
2023/12/30 10:09:57;;;;;;;4.00;1.80;;;;;;;9.70;58.25;99858.41;10511306;28;20143;-68
2023/12/30 10:14:59;;;;;;;4.43;1.65;;;;;;;9.73;57.91;99868.69;10511634;28;20192;-69
2023/12/30 10:20:01;;;;;;;4.55;1.80;;;;;;;9.75;57.72;99850.31;10510903;28;20492;-69
2023/12/30 10:25:03;;;;;;;12.45;1.30;;;;;;;9.72;57.85;99850.50;10506599;28;20056;-70
2023/12/30 10:30:08;;;;;;;3.00;1.20;;;;;;;9.68;56.75;99848.97;10510803;28;20456;-70
2023/12/30 10:35:10;;;;;;;5.10;2.10;;;;;;;9.76;57.25;99847.63;10510257;28;20111;-70
2023/12/30 10:40:12;;;;;;;21.35;2.40;;;;;;;9.79;57.38;99844.00;10505583;28;20056;-70
2023/12/30 10:45:14;;;;;;;2.10;1.30;;;;;;;10.02;56.92;99839.09;10507573;28;20097;-69
2023/12/30 10:50:17;;;;;;;4.53;1.48;;;;;;;9.90;56.82;99849.44;10508988;28;20059;-70
2023/12/30 10:55:20;;;;;;;3.95;1.98;;;;;;;9.86;56.56;99842.69;10510459;28;20155;-69
2023/12/30 11:00:23;;;;;;;4.35;1.45;;;;;;;10.10;56.32;99846.47;10509774;28;20043;-70
2023/12/30 11:05:38;;;;;;;2.75;1.55;;;;;;;9.76;55.81;99844.16;10510537;28;20047;-69
2023/12/30 11:10:40;;;;;;;4.45;1.17;;;;;;;9.68;56.59;99834.16;10508898;28;20040;-69
2023/12/30 11:15:45;;;;;;;8.50;1.67;;;;;;;9.70;56.39;99831.47;10510904;28;20140;-70
2023/12/30 11:20:47;;;;;;;3.83;1.73;;;;;;;9.60;56.31;99824.13;10516528;28;20551;-70
2023/12/30 11:25:51;;;;;;;4.85;1.67;;;;;;;9.74;56.48;99817.28;10516090;28;20457;-69
2023/12/30 11:30:58;;;;;;;4.38;2.05;;;;;;;9.78;56.01;99809.19;10511644;28;20078;-70
2023/12/30 11:36:04;;;;;;;2.80;1.10;;;;;;;9.74;56.30;99820.75;10516638;28;20610;-70
2023/12/30 11:41:06;;;;;;;2.75;1.05;;;;;;;9.85;56.18;99799.25;10511197;28;20044;-70
2023/12/30 11:46:08;;;;;;;2.88;1.52;;;;;;;9.92;55.85;99800.53;10511081;28;20048;-71
2023/12/30 11:51:27;;;;;;;4.10;1.10;;;;;;;9.83;55.91;99788.84;10513111;28;20131;-71
2023/12/30 11:56:30;;;;;;;5.40;1.38;;;;;;;9.96;56.07;99781.13;10513198;28;20484;-70
2023/12/30 12:01:32;;;;;;;2.42;1.50;;;;;;;9.94;55.99;99773.41;10512513;28;20044;-71
2023/12/30 12:06:35;;;;;;;4.72;1.25;;;;;;;9.98;55.88;99779.28;10512769;28;20038;-70
2023/12/30 12:11:38;;;;;;;0.88;0.73;;;;;;;10.02;55.06;99786.00;10509496;28;20051;-75
2023/12/30 12:16:41;;;;;;;1.98;0.90;;;;;;;10.13;54.83;99778.38;10512373;28;20040;-72
2023/12/30 12:21:43;;;;;;;4.97;1.23;;;;;;;10.14;54.63;99777.44;10511886;28;20047;-73
2023/12/30 12:26:45;;;;;;;1.10;0.90;;;;;;;10.35;54.44;99769.13;10511746;28;20178;-72
2023/12/30 12:31:47;;;;;;;1.77;0.93;;;;;;;10.38;53.82;99781.16;10508642;28;20052;-73
2023/12/30 12:36:50;;;;;;;1.63;0.82;;;;;;;10.39;53.75;99775.00;10490248;28;20059;-72
2023/12/30 12:41:51;;;;;;;4.70;1.35;;;;;;;10.49;53.25;99771.75;10508596;28;20542;-73
2023/12/30 12:46:54;;;;;;;1.10;0.70;;;;;;;10.58;52.70;99757.25;10509795;28;20040;-73
2023/12/30 12:51:55;;;;;;;1.30;0.88;;;;;;;10.84;53.07;99753.84;10485342;28;20040;-73
2023/12/30 12:56:58;;;;;;;1.17;0.63;;;;;;;10.78;53.13;99745.53;10509312;28;20044;-72
2023/12/30 13:02:00;;;;;;;0.85;0.80;;;;;;;10.57;52.49;99741.66;10510440;28;20036;-74
2023/12/30 13:07:02;;;;;;;0.98;0.88;;;;;;;10.53;53.27;99738.38;10511202;28;20047;-73
2023/12/30 13:12:05;;;;;;;7.28;1.00;;;;;;;10.66;53.00;99741.09;10508462;28;20247;-73
2023/12/30 13:17:12;;;;;;;3.30;1.20;;;;;;;10.94;53.18;99736.63;10511396;28;20058;-72
2023/12/30 13:22:14;;;;;;;4.63;1.00;;;;;;;11.00;52.49;99740.59;10508917;28;20352;-73
2023/12/30 13:27:16;;;;;;;1.17;0.70;;;;;;;10.86;52.35;99730.19;10510999;28;20487;-72
2023/12/30 13:32:18;;;;;;;3.25;0.85;;;;;;;10.67;52.83;99721.81;10508290;28;20119;-73
2023/12/30 13:37:22;;;;;;;1.70;0.85;;;;;;;10.75;52.92;99711.72;10525966;28;20084;-72
2023/12/30 13:42:24;;;;;;;1.63;0.77;;;;;;;10.79;52.45;99718.41;10509104;28;20054;-73
2023/12/30 13:52:28;;;;;;;2.55;0.80;;;;;;;10.65;51.85;99728.94;10492119;28;20063;-73
2023/12/30 13:57:32;;;;;;;2.53;1.35;;;;;;;10.63;51.44;99729.03;10511062;28;20048;-72
2023/12/30 14:02:38;;;;;;;4.20;1.50;;;;;;;10.73;51.92;99726.66;10491702;28;20666;-74
2023/12/30 14:07:40;;;;;;;3.08;1.52;;;;;;;10.76;52.08;99724.72;10501761;28;20040;-72
2023/12/30 14:12:42;;;;;;;4.63;1.77;;;;;;;10.71;52.03;99713.69;10507683;28;20043;-72
2023/12/30 14:17:44;;;;;;;3.70;1.40;;;;;;;10.69;51.89;99715.56;10510290;28;20724;-73
2023/12/30 14:22:47;;;;;;;13.68;2.45;;;;;;;10.58;51.76;99711.97;10507594;28;20047;-72
2023/12/30 14:27:49;;;;;;;2.50;1.10;;;;;;;10.54;51.97;99706.09;10509610;28;20052;-73
2023/12/30 14:32:51;;;;;;;2.55;1.15;;;;;;;10.34;51.75;99707.31;10506369;28;20393;-73
2023/12/30 14:37:53;;;;;;;4.80;2.80;;;;;;;10.22;51.62;99700.25;10490760;28;20067;-72
2023/12/30 14:42:55;;;;;;;5.50;1.58;;;;;;;10.10;52.15;99698.38;10504597;28;20484;-73
2023/12/30 14:47:59;;;;;;;2.70;1.60;;;;;;;9.90;51.91;99711.81;10504676;28;20495;-74
2023/12/30 14:53:01;;;;;;;4.85;2.25;;;;;;;9.76;51.99;99703.13;10515289;28;20035;-73
2023/12/30 14:58:04;;;;;;;12.77;2.95;;;;;;;9.61;52.47;99704.84;10516726;28;20551;-73
2023/12/30 15:03:07;;;;;;;4.70;2.38;;;;;;;9.59;52.69;99698.88;10517250;28;20048;-73
2023/12/30 15:08:09;;;;;;;4.70;1.60;;;;;;;9.53;52.92;99701.84;10499310;28;20376;-72
2023/12/30 15:13:11;;;;;;;3.25;1.50;;;;;;;9.36;53.16;99686.38;10513890;28;20044;-73
2023/12/30 15:18:13;;;;;;;8.57;2.03;;;;;;;9.22;53.62;99691.56;10517223;28;20114;-72
2023/12/30 15:23:15;;;;;;;16.15;5.10;;;;;;;9.13;53.74;99694.66;10516252;28;20113;-72
2023/12/30 15:28:18;;;;;;;5.75;2.58;;;;;;;9.06;54.08;99688.13;10516151;28;20050;-73
2023/12/30 15:33:21;;;;;;;5.75;1.85;;;;;;;8.90;54.42;99684.69;10516705;28;20050;-72
2023/12/30 15:38:24;;;;;;;6.82;2.50;;;;;;;8.77;54.71;99685.41;10516915;28;20060;-73
2023/12/30 15:43:28;;;;;;;3.25;1.30;;;;;;;8.59;55.02;99691.63;10516691;28;20048;-72
2023/12/30 15:48:31;;;;;;;3.67;1.27;;;;;;;8.53;55.31;99688.53;10514511;28;20040;-73
2023/12/30 15:53:33;;;;;;;6.30;1.85;;;;;;;8.58;55.31;99684.75;10515295;28;20036;-73
2023/12/30 15:58:35;;;;;;;4.03;1.30;;;;;;;8.69;55.19;99684.13;10478570;28;20158;-73
2023/12/30 16:03:38;;;;;;;7.97;1.35;;;;;;;8.75;55.21;99679.44;10511346;28;20114;-72
2023/12/30 16:08:40;;;;;;;3.40;1.00;;;;;;;8.74;55.22;99669.09;10497025;28;20048;-73
2023/12/30 16:13:42;;;;;;;2.05;1.45;;;;;;;8.55;55.50;99661.47;10513852;28;20048;-72
2023/12/30 16:18:45;;;;;;;3.67;0.90;;;;;;;8.41;55.80;99663.16;10513923;28;20059;-73
2023/12/30 16:23:47;;;;;;;5.18;1.70;;;;;;;8.31;56.02;99669.78;10513003;28;20052;-72
2023/12/30 16:28:49;;;;;;;6.15;1.70;;;;;;;8.28;56.10;99668.19;10513852;28;20048;-72
2023/12/30 16:33:51;;;;;;;4.43;2.13;;;;;;;8.17;56.24;99674.91;10512518;28;20408;-72
2023/12/30 16:38:55;;;;;;;1.90;1.17;;;;;;;8.09;56.67;99666.63;10496445;28;20236;-73
2023/12/30 16:43:57;;;;;;;1.92;1.27;;;;;;;8.08;56.56;99659.75;10513787;28;20323;-73
2023/12/30 16:49:00;;;;;;;2.78;1.85;;;;;;;7.97;56.62;99652.50;10512243;28;20054;-73
2023/12/30 16:54:03;;;;;;;2.25;1.23;;;;;;;7.77;56.98;99653.53;10511018;28;20400;-71
2023/12/30 16:59:05;;;;;;;3.28;1.38;;;;;;;7.63;57.14;99650.84;10511656;28;20079;-73
2023/12/30 17:04:07;;;;;;;4.38;1.60;;;;;;;7.53;57.61;99662.63;10510880;28;20054;-73
2023/12/30 17:09:09;;;;;;;4.32;2.20;;;;;;;7.51;57.80;99655.84;10511430;28;20036;-72
2023/12/30 17:14:14;;;;;;;6.13;3.25;;;;;;;7.43;57.75;99651.03;10511181;28;20090;-73
2023/12/30 17:19:17;;;;;;;3.95;2.10;;;;;;;7.34;57.88;99648.91;10508662;28;20048;-73
2023/12/30 17:24:20;;;;;;;3.92;1.60;;;;;;;7.27;58.15;99644.91;10494012;28;20128;-73
2023/12/30 17:29:22;;;;;;;5.18;1.50;;;;;;;7.08;58.19;99654.59;10478176;28;20048;-73
2023/12/30 17:34:24;;;;;;;3.25;1.25;;;;;;;6.94;58.56;99650.03;10506646;28;20112;-73
2023/12/30 17:39:26;;;;;;;5.68;2.22;;;;;;;6.90;58.93;99658.06;10512559;28;20075;-67
2023/12/30 17:44:29;;;;;;;4.72;2.35;;;;;;;6.80;58.97;99662.88;10512933;28;20130;-67
2023/12/30 17:49:31;;;;;;;2.67;1.50;;;;;;;6.76;59.28;99668.28;10525617;27;20043;-67
2023/12/30 17:54:33;;;;;;;2.90;1.38;;;;;;;6.76;59.43;99668.28;10522909;28;20048;-67
2023/12/30 17:59:35;;;;;;;4.10;2.00;;;;;;;6.95;59.46;99658.69;10505303;28;20043;-68
2023/12/30 18:04:37;;;;;;;2.55;1.55;;;;;;;7.13;59.33;99653.44;10507106;28;20047;-66
2023/12/30 18:09:39;;;;;;;5.30;1.80;;;;;;;7.18;59.35;99661.00;10508380;28;20480;-67
2023/12/30 18:14:41;;;;;;;3.05;1.70;;;;;;;7.23;59.02;99656.41;10508735;28;20032;-66
2023/12/30 18:19:43;;;;;;;6.30;2.30;;;;;;;7.15;59.42;99672.41;10506019;28;20181;-67
2023/12/30 18:24:45;;;;;;;7.47;3.10;;;;;;;7.30;59.60;99664.75;10506080;28;20044;-67
2023/12/30 18:29:47;;;;;;;9.20;6.00;;;;;;;7.42;59.46;99669.31;10507085;28;20127;-67
2023/12/30 18:34:49;;;;;;;10.75;4.72;;;;;;;7.44;59.23;99668.34;10505884;28;20040;-67
2023/12/30 18:39:51;;;;;;;9.93;4.47;;;;;;;7.44;59.44;99651.88;10522773;28;20556;-66
2023/12/30 18:44:53;;;;;;;10.95;5.40;;;;;;;7.42;59.49;99649.34;10507449;28;20286;-67
2023/12/30 18:49:55;;;;;;;8.20;3.72;;;;;;;7.11;59.89;99654.41;10504681;28;20036;-67
2023/12/30 18:54:57;;;;;;;8.02;3.92;;;;;;;7.08;60.08;99647.59;10502398;28;20327;-67
2023/12/30 18:59:59;;;;;;;9.65;3.47;;;;;;;7.25;59.79;99645.91;10489595;28;20492;-67
2023/12/30 19:05:01;;;;;;;5.93;3.08;;;;;;;7.15;60.05;99636.00;10489589;28;20047;-67
2023/12/30 19:10:04;;;;;;;7.28;2.60;;;;;;;7.04;60.12;99627.88;10507938;28;20085;-67
2023/12/30 19:15:07;;;;;;;8.40;2.40;;;;;;;6.86;60.33;99618.38;10507697;28;20072;-67
2023/12/30 19:20:10;;;;;;;6.72;3.00;;;;;;;7.04;60.44;99616.66;10506279;28;20051;-66
2023/12/30 19:25:12;;;;;;;7.47;3.10;;;;;;;7.26;60.28;99606.84;10508787;28;20790;-67
2023/12/30 19:30:14;;;;;;;6.70;2.80;;;;;;;7.37;60.02;99606.25;10483262;28;20044;-67
2023/12/30 19:35:18;;;;;;;7.28;4.13;;;;;;;7.33;60.18;99597.78;10503688;28;20530;-66
2023/12/30 19:40:20;;;;;;;7.05;2.97;;;;;;;7.40;60.06;99593.97;10510213;28;20052;-68
2023/12/30 19:45:22;;;;;;;9.40;3.33;;;;;;;7.41;60.15;99580.00;10513945;28;20111;-65
2023/12/30 19:50:24;;;;;;;7.30;2.92;;;;;;;7.52;60.29;99574.25;10526552;27;20939;-65
2023/12/30 19:55:27;;;;;;;7.70;3.78;;;;;;;7.67;60.10;99574.28;10510463;28;20048;-64
2023/12/30 20:00:29;;;;;;;9.75;3.80;;;;;;;7.67;60.14;99563.84;10491982;28;20044;-65
2023/12/30 20:05:31;;;;;;;8.68;4.80;;;;;;;7.80;60.15;99557.09;10509275;28;20040;-67
2023/12/30 20:10:34;;;;;;;9.65;4.80;;;;;;;7.90;59.95;99553.06;10524666;28;20119;-68
2023/12/30 20:15:36;;;;;;;7.32;3.70;;;;;;;8.01;59.72;99544.66;10506464;28;20048;-67
2023/12/30 20:20:39;;;;;;;7.93;3.53;;;;;;;8.10;59.49;99538.09;10491568;28;20590;-67
2023/12/30 20:25:42;;;;;;;10.38;3.63;;;;;;;7.91;59.54;99533.06;10514402;28;20748;-67
2023/12/30 20:30:45;;;;;;;6.30;3.08;;;;;;;7.74;60.02;99531.38;10514514;28;20827;-68
2023/12/30 20:35:48;;;;;;;8.25;3.63;;;;;;;7.81;60.41;99524.91;10514126;28;20047;-67
2023/12/30 20:40:50;;;;;;;7.85;2.90;;;;;;;7.89;60.05;99517.53;10497927;28;20048;-67
2023/12/30 20:45:52;;;;;;;11.52;4.03;;;;;;;7.81;60.16;99524.91;10516013;28;20130;-67
2023/12/30 20:50:54;;;;;;;9.00;4.07;;;;;;;7.78;60.11;99512.06;10514538;28;20044;-67
2023/12/30 20:55:56;;;;;;;7.38;2.65;;;;;;;7.52;60.49;99504.00;10523958;28;21586;-67
2023/12/30 21:00:59;;;;;;;7.28;3.17;;;;;;;7.27;60.81;99504.47;10512120;28;20058;-67
2023/12/30 21:06:01;;;;;;;4.75;2.55;;;;;;;7.17;61.00;99503.28;10509469;28;20155;-67
2023/12/30 21:11:03;;;;;;;4.25;2.70;;;;;;;7.13;60.94;99492.19;10507721;28;20138;-68
2023/12/30 21:16:05;;;;;;;8.93;2.70;;;;;;;7.03;61.29;99492.75;10515620;28;20120;-67
2023/12/30 21:21:08;;;;;;;6.70;2.35;;;;;;;6.99;61.63;99470.44;10515767;28;20029;-67
2023/12/30 21:26:25;;;;;;;4.55;2.03;;;;;;;6.98;61.74;99473.94;10515158;28;20033;-67
2023/12/30 21:31:28;;;;;;;4.55;1.85;;;;;;;7.02;62.04;99473.72;10513113;28;20056;-67
2023/12/30 21:36:30;;;;;;;3.30;1.80;;;;;;;7.17;62.19;99472.06;10512705;28;20420;-67
2023/12/30 21:41:32;;;;;;;4.78;2.15;;;;;;;7.44;61.93;99464.53;10514817;28;20048;-68
2023/12/30 21:46:42;;;;;;;3.10;1.65;;;;;;;7.64;62.06;99459.09;10530754;28;20051;-67
2023/12/30 21:51:44;;;;;;;7.47;1.90;;;;;;;7.75;61.89;99449.75;10513085;28;20101;-67
2023/12/30 21:56:47;;;;;;;3.97;1.83;;;;;;;7.87;61.67;99441.28;10498018;28;20056;-67
2023/12/30 22:01:49;;;;;;;4.28;2.05;;;;;;;7.90;61.67;99443.69;10498069;28;20043;-66
2023/12/30 22:06:51;;;;;;;4.03;1.58;;;;;;;8.05;61.65;99442.00;10515919;28;20044;-67
2023/12/30 22:11:53;;;;;;;4.63;2.10;;;;;;;8.21;61.52;99439.38;10498734;28;20083;-66
2023/12/30 22:16:55;;;;;;;6.72;2.67;;;;;;;8.11;61.26;99436.47;10515987;28;20040;-67
2023/12/30 22:21:57;;;;;;;5.38;2.67;;;;;;;8.01;61.37;99425.72;10513172;28;20047;-67
2023/12/30 22:26:59;;;;;;;4.85;2.13;;;;;;;8.01;61.73;99425.72;10514151;28;20284;-66
2023/12/30 22:32:01;;;;;;;3.30;1.70;;;;;;;8.15;61.68;99411.91;10513743;28;20507;-66
2023/12/30 22:37:03;;;;;;;5.32;2.47;;;;;;;8.14;61.54;99404.19;10512776;28;20048;-66
2023/12/30 22:42:06;;;;;;;3.13;1.65;;;;;;;8.12;61.79;99399.06;10496316;28;20182;-67
2023/12/30 22:47:08;;;;;;;3.53;1.83;;;;;;;8.03;61.94;99386.56;10513266;28;20036;-68
2023/12/30 22:52:10;;;;;;;2.15;1.45;;;;;;;7.95;62.35;99378.34;10512284;28;20051;-67
2023/12/30 22:57:12;;;;;;;1.55;1.30;;;;;;;8.00;62.60;99379.75;10495554;28;20114;-67
2023/12/30 23:02:15;;;;;;;2.40;1.25;;;;;;;8.17;62.62;99367.53;10513317;28;20044;-68
2023/12/30 23:07:17;;;;;;;1.98;1.20;;;;;;;8.33;62.60;99358.75;10529274;28;20594;-67
2023/12/30 23:12:19;;;;;;;1.58;1.20;;;;;;;8.47;62.48;99350.09;10501364;28;20586;-67
2023/12/30 23:17:21;;;;;;;3.25;1.30;;;;;;;8.64;62.20;99350.75;10523116;28;20040;-67
2023/12/30 23:22:23;;;;;;;2.00;1.08;;;;;;;8.76;62.04;99346.56;10505187;28;20508;-67
2023/12/30 23:27:25;;;;;;;1.63;1.00;;;;;;;8.88;62.06;99322.31;10504401;28;20052;-67
2023/12/30 23:32:27;;;;;;;1.48;1.20;;;;;;;8.84;62.08;99307.81;10522215;28;20040;-67
2023/12/30 23:37:31;;;;;;;1.00;0.90;;;;;;;8.80;62.22;99301.09;10502936;28;20048;-67
2023/12/30 23:42:34;;;;;;;1.90;1.25;;;;;;;8.60;62.16;99293.69;10522012;28;20496;-67
2023/12/30 23:47:37;;;;;;;2.63;1.60;;;;;;;8.30;62.37;99287.75;10522669;28;20051;-67